Latest Weather Observations for Cobar

IDN60801

Issued at 8:32 pm EST Friday 3 July 2015 (issued every 30 minutes, with the page automatically refreshed every 10 minutes)

About weather observations | Map of weather stations | Latest weather observations for NSW | Other Formats
Station Details ID: 048027 Name: COBAR MO Lat: -31.48 Lon: 145.83 Height: 260.0 m
Data from the previous 72 hours. | See also: Recent months at Cobar
Date/Time
EST
Temp
°C
App
Temp
°C
Dew
Point
Rel
Hum
%
Delta-T
°C
Wind Press
QNH
hPa
Press
MSL
hPa
Rain
since 9 am
mm
Dir
 
Spd
km/h
Gust
km/h
Spd
kts
Gust
kts
03/08:30pm 7.2 3.6 -1.8 53 3.4 S 7 11 4 6 1026.1 1026.4 0.0
03/08:00pm 7.0 3.2 -1.1 56 3.1 SSW 9 11 5 6 1026.0 1026.3 0.0
03/07:30pm 7.4 3.5 -1.2 54 3.3 SSW 9 11 5 6 1025.6 1025.8 0.0
03/07:00pm 8.2 4.8 -0.7 53 3.5 S 7 9 4 5 1025.4 1025.6 0.0
03/06:30pm 9.0 5.1 -1.6 47 4.1 SSW 9 11 5 6 1025.6 1025.8 0.0
03/06:00pm 9.6 6.1 -1.0 47 4.2 SSW 7 9 4 5 1025.5 1025.7 0.0
03/05:30pm 10.2 6.4 -0.5 47 4.3 SSW 9 11 5 6 1025.6 1025.8 0.0
03/05:00pm 11.6 8.1 -2.5 37 5.5 SW 6 9 3 5 1025.4 1025.6 0.0
03/04:30pm 12.5 9.0 -2.9 34 6.0 SSW 6 9 3 5 1025.3 1025.5 0.0
03/04:00pm 13.4 10.2 -3.6 30 6.6 E 4 7 2 4 1025.3 1025.5 0.0
03/03:30pm 13.4 10.4 -2.1 34 6.2 ESE 4 7 2 4 1025.1 1025.3 0.0
03/03:00pm 12.9 9.0 -4.2 30 6.5 ESE 7 9 4 5 1025.2 1025.4 0.0
03/02:30pm 12.8 9.3 -2.7 34 6.1 S 6 9 3 5 1025.3 1025.5 0.0
03/02:00pm 12.7 8.7 -2.1 35 5.9 E 9 13 5 7 1025.3 1025.5 0.0
03/01:30pm 11.8 8.2 -2.2 37 5.5 SE 7 11 4 6 1025.5 1025.7 0.0
03/01:00pm 11.8 7.8 -2.2 37 5.5 E 9 15 5 8 1026.1 1026.4 0.0
03/12:30pm 11.0 6.8 -1.0 43 4.8 ESE 11 17 6 9 1026.7 1027.0 0.0
03/12:00pm 10.7 6.1 -1.1 44 4.7 E 13 20 7 11 1027.3 1027.6 0.0
03/11:30am 9.9 5.0 -0.6 48 4.2 SE 15 19 8 10 1027.8 1028.1 0.0
03/11:00am 9.5 4.4 -1.6 46 4.3 ESE 15 20 8 11 1028.4 1028.6 0.0
03/10:30am 9.0 4.9 0.0 53 3.6 SE 11 15 6 8 1028.5 1028.7 0.0
03/10:00am 8.3 3.9 0.6 58 3.1 ESE 13 20 7 11 1028.5 1028.7 0.0
03/09:30am 6.2 3.2 1.8 73 1.8 SSE 7 11 4 6 1028.2 1028.5 0.0
03/09:00am 4.8 1.3 1.3 78 1.4 S 9 11 5 6 1028.0 1028.3 0.0
03/08:30am 3.4 0.3 1.6 88 0.7 SSW 7 9 4 5 1027.9 1028.2 0.0
03/08:00am 2.7 -0.3 0.9 88 0.7 S 6 7 3 4 1027.6 1027.9 0.0
03/07:30am 1.8 -1.8 0.7 92 0.4 SE 9 11 5 6 1027.2 1027.5 0.0
03/07:00am 2.0 -1.2 0.9 92 0.4 SSE 7 9 4 5 1026.8 1027.1 0.0
03/06:30am 2.4 -1.1 1.1 91 0.5 S 9 11 5 6 1026.6 1026.9 0.0
03/06:00am 2.6 -0.5 1.3 91 0.5 S 7 11 4 6 1026.8 1027.1 0.0
03/05:30am 3.2 -0.2 1.9 91 0.5 SSE 9 13 5 7 1026.7 1027.0 0.0
03/05:00am 3.6 0.2 1.8 88 0.7 S 9 11 5 6 1026.5 1026.8 0.0
03/04:30am 3.6 0.2 2.1 90 0.6 SSE 9 11 5 6 1026.5 1026.8 0.0
03/04:00am 4.1 0.8 2.6 90 0.6 SSE 9 13 5 7 1026.5 1026.8 0.0
03/03:30am 4.2 1.3 2.7 90 0.6 S 7 9 4 5 1026.6 1026.9 0.0
03/03:00am 4.6 1.8 2.9 89 0.7 S 7 11 4 6 1026.7 1027.0 0.0
03/02:30am 4.3 1.1 3.3 93 0.4 SSW 9 11 5 6 1026.7 1027.0 0.0
03/02:00am 5.4 2.3 3.7 89 0.7 S 9 13 5 7 1026.9 1027.2 0.0
03/01:30am 5.7 2.6 3.6 86 0.9 SSW 9 13 5 7 1026.9 1027.2 0.0
03/01:00am 6.3 2.9 4.0 85 1.0 S 11 13 6 7 1026.9 1027.2 0.0
03/12:30am 6.4 3.5 4.6 88 0.8 SSW 9 11 5 6 1027.2 1027.5 0.0
03/12:00am 6.6 4.1 5.0 89 0.7 SW 7 9 4 5 1027.3 1027.6 0.0
 
Date/Time
EST
Temp
°C
App
Temp
°C
Dew
Point
Rel
Hum
%
Delta-T
°C
Wind Press
QNH
hPa
Press
MSL
hPa
Rain
since 9 am
mm
Dir
 
Spd
km/h
Gust
km/h
Spd
kts
Gust
kts
02/11:30pm 7.0 4.1 4.7 85 1.0 SW 9 13 5 7 1027.2 1027.5 0.0
02/11:00pm 8.0 5.2 5.1 82 1.3 S 9 13 5 7 1027.1 1027.4 0.0
02/10:30pm 8.3 5.6 5.4 82 1.3 SSW 9 13 5 7 1027.0 1027.3 0.0
02/10:00pm 8.3 5.6 5.4 82 1.3 SSW 9 13 5 7 1027.0 1027.3 0.0
02/09:30pm 9.0 5.5 5.3 77 1.7 S 13 17 7 9 1026.8 1027.1 0.0
02/09:00pm 9.8 5.8 5.0 72 2.2 S 15 20 8 11 1026.9 1027.2 0.0
02/08:30pm 9.9 6.3 4.8 70 2.3 SSW 13 20 7 11 1026.7 1027.0 0.0
02/08:00pm 9.7 6.7 4.3 69 2.4 SSW 9 15 5 8 1026.5 1026.8 0.0
02/07:30pm 9.3 5.9 4.1 70 2.3 SW 11 13 6 7 1026.3 1026.6 0.0
02/07:00pm 9.6 6.6 4.0 68 2.5 WSW 9 11 5 6 1026.0 1026.3 0.0
02/06:30pm 10.4 7.0 3.9 64 2.9 SW 11 13 6 7 1026.0 1026.3 0.0
02/06:00pm 11.4 7.5 3.6 58 3.5 WSW 13 17 7 9 1025.6 1025.8 0.0
02/05:30pm 12.2 8.4 3.8 56 3.8 WSW 13 19 7 10 1025.7 1026.0 0.0
02/05:00pm 12.6 7.9 3.2 52 4.2 SW 17 22 9 12 1025.4 1025.6 0.0
02/04:30pm 13.0 7.8 2.3 48 4.7 SW 19 26 10 14 1025.3 1025.5 0.0
02/04:00pm 12.6 7.2 2.6 50 4.4 WSW 20 26 11 14 1025.2 1025.4 0.0
02/03:30pm 13.1 7.3 2.2 47 4.8 SSW 22 30 12 16 1025.2 1025.4 0.0
02/03:00pm 13.3 8.2 2.8 49 4.7 SW 19 26 10 14 1025.1 1025.3 0.0
02/02:30pm 13.4 8.7 3.2 50 4.6 WSW 17 24 9 13 1024.9 1025.1 0.0
02/02:00pm 13.0 8.3 3.2 51 4.4 WSW 17 24 9 13 1024.8 1025.0 0.0
02/01:30pm 12.4 8.5 3.5 54 4.0 SW 13 19 7 10 1025.2 1025.4 0.0
02/01:00pm 12.3 7.2 3.1 53 4.1 SW 19 26 10 14 1025.4 1025.6 0.0
02/12:30pm 11.8 6.9 2.1 51 4.2 SW 17 24 9 13 1025.8 1026.1 0.0
02/12:00pm 11.4 6.5 2.1 53 4.0 SW 17 22 9 12 1026.3 1026.6 0.0
02/11:30am 10.7 6.1 1.8 54 3.8 SW 15 19 8 10 1026.9 1027.2 0.0
02/11:00am 10.1 5.7 2.7 60 3.2 SW 15 20 8 11 1027.4 1027.7 0.0
02/10:30am 9.0 4.6 2.7 64 2.7 SW 15 20 8 11 1027.6 1027.9 0.0
02/10:00am 8.2 3.9 3.1 70 2.2 SW 15 20 8 11 1027.6 1027.9 0.0
02/09:30am 6.8 3.7 3.8 81 1.3 WSW 9 13 5 7 1027.4 1027.7 0.0
02/09:00am 5.0 2.1 2.8 86 0.9 WSW 7 11 4 6 1027.2 1027.5 0.0
02/08:30am 3.8 0.5 2.3 90 0.6 W 9 11 5 6 1027.0 1027.3 0.0
02/08:00am 3.0 0.0 1.7 91 0.5 W 7 7 4 4 1026.7 1027.0 0.0
02/07:30am 2.6 -0.8 1.8 94 0.3 WNW 9 11 5 6 1026.4 1026.7 0.0
02/07:00am 2.5 -0.9 2.0 96 0.2 WNW 9 11 5 6 1026.3 1026.6 0.0
02/06:30am 3.0 0.1 1.7 91 0.5 W 6 9 3 5 1025.6 1025.8 0.0
02/06:00am 2.8 0.0 1.8 93 0.4 WSW 6 7 3 4 1025.2 1025.4 0.0
02/05:30am 2.8 0.0 1.8 93 0.4 W 6 7 3 4 1025.3 1025.5 0.0
02/05:00am 3.1 0.3 1.8 91 0.5 SW 6 7 3 4 1025.2 1025.4 0.0
02/04:30am 2.6 -0.3 1.6 93 0.4 W 6 7 3 4 1025.0 1025.2 0.0
02/04:00am 3.4 0.6 1.9 90 0.6 SSW 6 7 3 4 1025.2 1025.4 0.0
02/03:30am 3.5 0.5 2.0 90 0.6 SW 7 7 4 4 1025.5 1025.7 0.0
02/03:00am 3.8 1.0 2.0 88 0.7 SSE 6 7 3 4 1025.9 1026.2 0.0
02/02:30am 4.2 1.2 2.2 87 0.8 S 7 9 4 5 1025.9 1026.2 0.0
02/02:00am 4.7 1.4 2.2 84 1.0 SSE 9 11 5 6 1026.3 1026.6 0.0
02/01:30am 5.1 2.1 2.1 81 1.2 SSE 7 11 4 6 1026.2 1026.5 0.0
02/01:00am 4.9 1.6 2.2 83 1.1 SSW 9 11 5 6 1026.4 1026.7 0.0
02/12:30am 5.3 2.4 2.4 81 1.2 S 7 9 4 5 1026.5 1026.8 0.0
02/12:00am 5.7 2.7 2.0 77 1.5 S 7 9 4 5 1026.7 1027.0 0.0
 
Date/Time
EST
Temp
°C
App
Temp
°C
Dew
Point
Rel
Hum
%
Delta-T
°C
Wind Press
QNH
hPa
Press
MSL
hPa
Rain
since 9 am
mm
Dir
 
Spd
km/h
Gust
km/h
Spd
kts
Gust
kts
01/11:30pm 5.5 2.5 2.3 80 1.3 S 7 9 4 5 1026.7 1027.0 0.0
01/11:02pm 5.3 2.4 2.4 81 1.2 SSE 7 9 4 5 1026.5 1026.8 0.0
01/11:00pm 5.2 2.3 2.5 83 1.1 SSE 7 9 4 5 1026.5 1026.8 0.0
01/10:48pm 5.6 2.3 2.4 80 1.3 S 9 9 5 5 1026.6 1026.9 0.0
01/10:30pm 5.7 2.4 2.6 80 1.3 SSW 9 11 5 6 1026.7 1027.0 0.0
01/10:00pm 5.5 2.3 2.8 83 1.1 SW 9 9 5 5 1026.7 1027.0 0.0
01/09:30pm 5.9 3.0 2.8 80 1.3 SW 7 9 4 5 1026.6 1026.9 0.0
01/09:00pm 6.1 2.8 2.7 79 1.4 SW 9 11 5 6 1026.7 1027.0 0.0
01/08:30pm 6.9 3.6 2.6 74 1.8 WSW 9 9 5 5 1026.7 1027.0 0.0
01/08:00pm 7.4 4.1 2.4 70 2.1 WSW 9 13 5 7 1026.9 1027.2 0.0
01/07:30pm 7.8 4.1 2.3 68 2.3 WSW 11 13 6 7 1026.4 1026.7 0.0
01/07:00pm 7.7 4.4 2.5 69 2.2 SW 9 9 5 5 1026.4 1026.7 0.0
01/06:30pm 8.2 5.0 2.8 69 2.3 SW 9 9 5 5 1026.3 1026.6 0.0
01/06:00pm 8.9 6.0 2.6 64 2.7 WSW 7 9 4 5 1026.1 1026.4 0.0
01/05:30pm 10.0 6.7 2.3 59 3.3 WSW 9 11 5 6 1025.9 1026.2 0.0
01/05:00pm 10.7 7.0 2.6 57 3.5 SW 11 17 6 9 1026.2 1026.5 0.0
01/04:30pm 11.7 7.7 2.6 53 4.0 WSW 13 19 7 10 1026.2 1026.5 0.0
01/04:00pm 12.2 8.6 2.7 52 4.2 SW 11 19 6 10 1026.1 1026.4 0.0
01/03:30pm 11.9 7.8 2.0 50 4.3 WSW 13 19 7 10 1025.9 1026.2 0.0
01/03:00pm 12.3 9.1 2.8 52 4.2 WSW 9 15 5 8 1025.9 1026.2 0.0
01/02:30pm 12.3 8.7 2.8 52 4.2 SW 11 17 6 9 1026.0 1026.3 0.0
01/02:00pm 11.9 8.7 2.8 53 4.0 SSW 9 20 5 11 1026.2 1026.5 0.0
01/01:30pm 11.4 7.7 2.4 54 3.9 SSW 11 19 6 10 1026.5 1026.8 0.0
01/01:00pm 11.3 7.6 2.3 54 3.9 WSW 11 20 6 11 1027.3 1027.6 0.0
01/12:30pm 10.9 6.8 2.0 54 3.8 SW 13 20 7 11 1027.9 1028.2 0.0
01/12:00pm 11.0 7.7 2.2 54 3.8 SE 9 15 5 8 1028.4 1028.6 0.0
01/11:30am 10.5 7.1 1.8 55 3.7 S 9 17 5 9 1029.1 1029.4 0.0
01/11:00am 10.1 6.8 2.4 59 3.3 SE 9 15 5 8 1029.5 1029.8 0.0
01/10:30am 10.0 6.4 3.1 62 3.0 SSE 11 15 6 8 1029.5 1029.8 0.0
01/10:00am 9.4 6.6 2.9 64 2.8 SSE 7 13 4 7 1029.5 1029.8 0.0
01/09:30am 8.1 5.0 3.5 73 2.0 S 9 13 5 7 1029.6 1029.8 0.0
01/09:00am 7.6 5.0 4.2 79 1.5 S 7 11 4 6 1029.5 1029.7 0.0
01/08:30am 5.9 2.9 4.3 89 0.7 S 9 11 5 6 1029.1 1029.2 0.0
01/08:07am 5.0 2.0 4.1 94 0.4 S 9 11 5 6 1028.9 1029.0 0.0
01/08:00am 4.8 2.2 4.1 95 0.3 S 7 9 4 5 1028.9 1029.0 0.0
01/07:30am 4.0 1.5 3.8 99 0.1 SSE 6 7 3 4 1028.7 1028.8 0.0
01/07:00am 4.3 1.7 4.1 99 0.1 SSE 7 7 4 4 1028.1 1028.3 0.0
01/06:30am 4.6 2.0 4.4 99 0.1 SSE 7 9 4 5 1027.7 1027.9 0.0
01/06:00am 4.6 2.0 4.4 99 0.1 S 7 9 4 5 1027.5 1027.7 0.0
01/05:30am 4.8 2.4 4.3 97 0.2 S 6 7 3 4 1027.4 1027.6 0.0
01/05:18am 5.1 2.6 4.9 99 0.1 S 7 7 4 4 1027.3 1027.5 0.0
01/05:00am 5.3 3.1 5.1 99 0.1 S 6 7 3 4 1027.3 1027.5 0.0
01/04:30am 5.9 3.7 5.4 97 0.2 S 6 9 3 5 1027.3 1027.5 0.0
01/04:00am 6.5 4.2 5.8 95 0.3 S 7 9 4 5 1027.3 1027.5 0.0
01/03:30am 6.7 4.0 5.8 94 0.4 S 9 11 5 6 1027.3 1027.5 0.0
01/03:00am 6.8 4.2 5.9 94 0.4 S 9 11 5 6 1027.4 1027.6 0.0
01/02:30am 6.8 4.2 5.9 94 0.4 S 9 13 5 7 1027.4 1027.6 0.0
01/02:00am 7.1 4.8 5.8 91 0.6 S 7 11 4 6 1027.6 1027.8 0.0
01/01:30am 7.3 4.6 5.8 90 0.7 SSE 9 13 5 7 1027.7 1027.9 0.0
01/01:00am 7.7 5.1 5.9 88 0.8 SSE 9 17 5 9 1027.8 1028.0 0.0
01/12:30am 7.7 5.0 5.7 87 0.9 S 9 13 5 7 1028.0 1028.2 0.0
01/12:00am 7.7 5.0 5.7 87 0.9 S 9 13 5 7 1028.0 1028.2 0.0
 
Date/Time
EST
Temp
°C
App
Temp
°C
Dew
Point
Rel
Hum
%
Delta-T
°C
Wind Press
QNH
hPa
Press
MSL
hPa
Rain
since 9 am
mm
Dir
 
Spd
km/h
Gust
km/h
Spd
kts
Gust
kts
30/11:30pm 8.1 5.0 5.7 85 1.1 SSW 11 15 6 8 1027.7 1027.9 0.0
30/11:00pm 8.5 5.9 5.9 84 1.2 SSW 9 13 5 7 1027.8 1028.0 0.0
30/10:30pm 9.0 6.5 6.4 84 1.2 S 9 13 5 7 1027.7 1027.9 0.0
30/10:00pm 9.5 7.0 6.5 81 1.4 SSW 9 11 5 6 1027.8 1028.0 0.0
30/09:30pm 10.2 7.7 6.6 78 1.7 S 9 13 5 7 1027.5 1027.7 0.0
30/09:00pm 10.7 8.2 6.7 76 1.9 SSW 9 13 5 7 1027.6 1027.8 0.0

Other Formats:

Comma delimited format used in spreadsheet applications
http://www.bom.gov.au/fwo/IDN60801/IDN60801.94711.axf

JavaScript Object Notation format (JSON) in row-major order
http://www.bom.gov.au/fwo/IDN60801/IDN60801.94711.json